Portada
METAR-TAF:

METAR-TAF

Aeroports :

Yezd, Iran

latitud: 31-54N, longitud: 054-24E, altitud: 1238 m

Observació

L'informe es va fer fa 34 minuts, a les 22:00 UTC
Vent 4 kt del Oest
Temperatura 6°C
Humitat 61%
Pressió 1024 hPa
Visibilitat 10 km o més
Núvols disperses a una alçada de 4000 ft
Cel cobert a una alçada de 9000 ft

METAR: OIYY 172200Z 28004KT 9999 SCT040 OVC090 06/M01 Q1024

Hora: 02:04 (22:34 UTC)


TAF: manca

Observacions i pronòstics meteorològics de més de 4000 aeroports (METAR i TAF).

Les estacions disponibles són els punts grocs i vermells al mapa.

Posi el ratolí al punt desitjat per veure el nom de l'estació.

Feu clic per veure les observacions i els pronòstics meteorològics.

Per canviar el mapa: feu clic els botons verds amb una creu de color negre per apropar; al botó verd amb un guió per allunyar la imatge; o en les fletxes verdes per a mapes adjacents.


METAR-TAF: